createdAt,value
2022-12-23T00:00:28.101Z,93422.06
2022-12-23T00:02:54.840Z,93423.19
2022-12-23T00:05:21.540Z,93430.28
2022-12-23T00:07:48.076Z,93420.41
2022-12-23T00:10:14.763Z,93404.03
2022-12-23T00:12:59.851Z,93407.97
2022-12-23T00:15:26.386Z,93419.63
2022-12-23T00:17:52.932Z,93402.84
2022-12-23T00:20:19.544Z,93418.78
2022-12-23T00:23:04.640Z,93411.34
2022-12-23T00:25:42.117Z,93410.97
2022-12-23T00:28:11.765Z,93404.75
2022-12-23T00:30:45.889Z,93415.28
2022-12-23T00:33:13.935Z,93428.03
2022-12-23T00:35:40.624Z,93413.97
2022-12-23T00:38:07.151Z,93415.00
2022-12-23T00:40:52.342Z,93412.25
2022-12-23T00:43:19.051Z,93419.28
2022-12-23T00:45:45.919Z,93421.66
2022-12-23T00:48:31.093Z,93418.06
2022-12-23T00:50:57.820Z,93420.00
2022-12-23T00:53:24.348Z,93433.28
2022-12-23T00:55:50.986Z,93439.13
2022-12-23T00:58:19.400Z,93443.41
2022-12-23T01:01:05.409Z,93447.78
2022-12-23T01:03:51.104Z,93439.97
2022-12-23T01:06:17.714Z,93448.53
2022-12-23T01:08:44.343Z,93449.72
2022-12-23T01:11:11.916Z,93438.03
2022-12-23T01:13:38.908Z,93440.38
2022-12-23T01:16:13.321Z,93447.41
2022-12-23T01:18:43.564Z,93443.56
2022-12-23T01:21:10.847Z,93448.19
2022-12-23T01:23:37.634Z,93439.25
2022-12-23T01:26:06.795Z,93448.22
2022-12-23T01:28:34.350Z,93447.41
2022-12-23T01:31:03.320Z,93446.97
2022-12-23T01:33:31.914Z,93456.69
2022-12-23T01:36:03.454Z,93451.56
2022-12-23T01:38:30.611Z,93451.56
2022-12-23T01:40:57.229Z,93443.38
2022-12-23T01:43:41.850Z,93445.00
2022-12-23T01:46:08.462Z,93450.53
2022-12-23T01:48:35.125Z,93447.41
2022-12-23T01:51:08.651Z,93448.50
2022-12-23T01:53:41.577Z,93463.72
2022-12-23T01:56:13.551Z,93469.16
2022-12-23T01:58:46.895Z,93466.69
2022-12-23T02:01:32.310Z,93448.75
2022-12-23T02:04:03.848Z,93474.50
2022-12-23T02:06:59.722Z,93472.91
2022-12-23T02:09:37.547Z,93456.84
2022-12-23T02:12:28.371Z,93455.59
2022-12-23T02:15:44.668Z,93463.75
2022-12-23T02:18:30.507Z,93471.19
2022-12-23T02:21:22.725Z,93473.88
2022-12-23T02:24:07.217Z,93473.88
2022-12-23T02:26:59.993Z,93486.28
2022-12-23T02:29:54.618Z,93498.75
2022-12-23T02:32:53.253Z,93507.31
2022-12-23T02:35:37.250Z,93495.94
2022-12-23T02:39:02.443Z,93504.09
2022-12-23T02:41:57.493Z,93509.25
2022-12-23T02:44:39.709Z,93501.06
2022-12-23T02:47:21.255Z,93499.53
2022-12-23T02:49:56.969Z,93505.00
2022-12-23T02:52:29.567Z,93505.34
2022-12-23T02:55:05.086Z,93503.44
2022-12-23T02:57:35.836Z,93496.41
2022-12-23T03:00:03.745Z,93494.88
2022-12-23T03:02:36.195Z,93501.47
2022-12-23T03:05:03.223Z,93504.19
2022-12-23T03:07:40.590Z,93510.44
2022-12-23T03:10:25.487Z,93501.94
2022-12-23T03:13:09.298Z,93532.00
2022-12-23T03:15:35.760Z,93536.19
2022-12-23T03:18:33.340Z,93538.13
2022-12-23T03:21:14.592Z,93543.97
2022-12-23T03:23:50.536Z,93545.53
2022-12-23T03:26:26.594Z,93544.72
2022-12-23T03:29:03.493Z,93552.88
2022-12-23T03:31:33.231Z,93557.22
2022-12-23T03:34:05.449Z,93570.50
2022-12-23T03:36:37.554Z,93570.03
2022-12-23T03:39:07.706Z,93559.53
2022-12-23T03:41:40.798Z,93562.25
2022-12-23T03:44:13.513Z,93563.88
2022-12-23T03:47:05.872Z,93552.25
2022-12-23T03:49:38.847Z,93559.66
2022-12-23T03:52:21.454Z,93556.09
2022-12-23T03:54:57.779Z,93537.78
2022-12-23T03:57:49.937Z,93541.31
2022-12-23T04:00:16.687Z,93555.41
2022-12-23T04:02:57.478Z,93561.63
2022-12-23T04:05:39.285Z,93555.31
2022-12-23T04:08:18.603Z,93550.69
2022-12-23T04:10:46.162Z,93560.44
2022-12-23T04:13:14.920Z,93560.47
2022-12-23T04:15:42.452Z,93565.09
2022-12-23T04:18:10.486Z,93560.81
2022-12-23T04:20:37.363Z,93553.38
2022-12-23T04:23:04.265Z,93550.63
2022-12-23T04:25:30.850Z,93568.56
2022-12-23T04:27:57.370Z,93568.19
2022-12-23T04:30:28.129Z,93577.50
2022-12-23T04:33:00.420Z,93570.50
2022-12-23T04:35:26.950Z,93573.19
2022-12-23T04:37:53.472Z,93575.13
2022-12-23T04:40:20.077Z,93578.66
2022-12-23T04:42:46.588Z,93562.63
2022-12-23T04:45:13.197Z,93565.38
2022-12-23T04:47:40.612Z,93563.06
2022-12-23T04:50:08.173Z,93574.41
2022-12-23T04:52:34.699Z,93579.88
2022-12-23T04:55:01.203Z,93579.50
2022-12-23T04:57:27.831Z,93584.97
2022-12-23T04:59:54.396Z,93574.03
2022-12-23T05:02:21.024Z,93562.72
2022-12-23T05:04:47.651Z,93564.28
2022-12-23T05:07:14.198Z,93572.44
2022-12-23T05:09:40.685Z,93571.66
2022-12-23T05:12:07.219Z,93579.50
2022-12-23T05:14:33.778Z,93572.47
2022-12-23T05:17:06.867Z,93575.16
2022-12-23T05:19:34.062Z,93593.06
2022-12-23T05:22:00.655Z,93586.84
2022-12-23T05:24:27.188Z,93579.81
2022-12-23T05:26:59.703Z,93585.34
2022-12-23T05:29:27.479Z,93580.59
2022-12-23T05:31:54.217Z,93584.50
2022-12-23T05:34:21.263Z,93586.88
2022-12-23T05:36:47.781Z,93580.59
2022-12-23T05:39:14.331Z,93575.91
2022-12-23T05:41:40.850Z,93586.09
2022-12-23T05:44:07.603Z,93574.41
2022-12-23T05:46:34.440Z,93579.91
2022-12-23T05:49:01.037Z,93595.13
2022-12-23T05:51:27.568Z,93597.84
2022-12-23T05:53:54.115Z,93594.25
2022-12-23T05:56:20.615Z,93600.56
2022-12-23T05:58:47.100Z,93598.53
2022-12-23T06:01:14.216Z,93592.28
2022-12-23T06:03:40.844Z,93596.56
2022-12-23T06:06:07.605Z,93603.59
2022-12-23T06:08:34.093Z,93588.00
2022-12-23T06:11:00.604Z,93597.78
2022-12-23T06:13:27.123Z,93600.88
2022-12-23T06:15:53.678Z,93600.44
2022-12-23T06:18:20.229Z,93591.44
2022-12-23T06:20:47.869Z,93592.66
2022-12-23T06:23:14.526Z,93587.94
2022-12-23T06:25:41.044Z,93585.94
2022-12-23T06:28:08.010Z,93585.22
2022-12-23T06:30:34.973Z,93570.38
2022-12-23T06:33:01.992Z,93557.47
2022-12-23T06:35:28.541Z,93575.09
2022-12-23T06:38:05.486Z,93578.63
2022-12-23T06:40:35.331Z,93576.59
2022-12-23T06:43:01.854Z,93586.84
2022-12-23T06:45:28.356Z,93580.59
2022-12-23T06:47:54.905Z,93583.03
2022-12-23T06:50:21.414Z,93586.06
2022-12-23T06:52:48.980Z,93587.56
2022-12-23T06:55:15.625Z,93586.41
2022-12-23T06:57:42.170Z,93597.78
2022-12-23T07:00:09.176Z,93594.25
2022-12-23T07:02:35.875Z,93591.53
2022-12-23T07:05:02.479Z,93592.72
2022-12-23T07:07:29.091Z,93587.22
2022-12-23T07:09:56.768Z,93591.13
2022-12-23T07:12:23.272Z,93587.31
2022-12-23T07:14:49.757Z,93597.03
2022-12-23T07:17:16.393Z,93596.69
2022-12-23T07:19:43.017Z,93595.97
2022-12-23T07:22:12.418Z,93607.75
2022-12-23T07:24:38.918Z,93605.84
2022-12-23T07:27:05.532Z,93596.94
2022-12-23T07:29:32.030Z,93605.16
2022-12-23T07:31:58.620Z,93617.59
2022-12-23T07:34:25.474Z,93611.00
2022-12-23T07:36:52.100Z,93619.13
2022-12-23T07:39:18.643Z,93629.25
2022-12-23T07:41:45.221Z,93633.09
2022-12-23T07:44:13.133Z,93637.38
2022-12-23T07:46:40.075Z,93628.38
2022-12-23T07:49:06.630Z,93632.59
2022-12-23T07:51:34.228Z,93631.34
2022-12-23T07:54:00.831Z,93635.59
2022-12-23T07:56:27.397Z,93636.25
2022-12-23T07:58:54.580Z,93637.34
2022-12-23T08:01:21.770Z,93642.03
2022-12-23T08:03:48.921Z,93633.06
2022-12-23T08:06:16.572Z,93627.59
2022-12-23T08:08:45.568Z,93642.44
2022-12-23T08:11:13.878Z,93629.88
2022-12-23T08:13:42.701Z,93625.97
2022-12-23T08:16:10.548Z,93631.06
2022-12-23T08:18:38.841Z,93639.66
2022-12-23T08:21:08.157Z,93643.25
2022-12-23T08:23:34.961Z,93645.56
2022-12-23T08:26:04.414Z,93650.56
2022-12-23T08:28:31.815Z,93648.59
2022-12-23T08:31:09.257Z,93647.00
2022-12-23T08:33:38.167Z,93644.63
2022-12-23T08:36:06.617Z,93655.16
2022-12-23T08:38:33.976Z,93652.09
2022-12-23T08:41:00.725Z,93647.75
2022-12-23T08:43:33.563Z,93655.88
2022-12-23T08:46:02.416Z,93655.53
2022-12-23T08:48:29.239Z,93647.63
2022-12-23T08:50:55.826Z,93661.34
2022-12-23T08:53:22.372Z,93676.63
2022-12-23T08:55:49.008Z,93677.88
2022-12-23T08:58:15.774Z,93679.00
2022-12-23T09:00:42.378Z,93688.38
2022-12-23T09:03:09.164Z,93676.94
2022-12-23T09:05:40.011Z,93683.97
2022-12-23T09:08:06.955Z,93682.34
2022-12-23T09:10:34.118Z,93679.50
2022-12-23T09:13:01.710Z,93689.59
2022-12-23T09:15:30.650Z,93682.53
2022-12-23T09:17:57.731Z,93682.50
2022-12-23T09:20:24.521Z,93672.59
2022-12-23T09:22:51.089Z,93666.66
2022-12-23T09:25:17.770Z,93674.09
2022-12-23T09:27:44.326Z,93674.47
2022-12-23T09:30:11.543Z,93667.22
2022-12-23T09:32:38.065Z,93669.06
2022-12-23T09:35:05.317Z,93661.22
2022-12-23T09:37:31.907Z,93658.81
2022-12-23T09:39:58.916Z,93647.28
2022-12-23T09:42:46.953Z,93648.72
2022-12-23T09:45:26.031Z,93640.44
2022-12-23T09:47:56.500Z,93653.47
2022-12-23T09:50:32.293Z,93654.78
2022-12-23T09:53:05.597Z,93653.66
2022-12-23T09:55:46.075Z,93652.03
2022-12-23T09:58:31.797Z,93646.91
2022-12-23T10:01:09.466Z,93655.84
2022-12-23T10:04:10.274Z,93649.56
2022-12-23T10:06:39.454Z,93635.81
2022-12-23T10:09:07.526Z,93635.34
2022-12-23T10:11:46.827Z,93615.63
2022-12-23T10:14:21.074Z,93614.53
2022-12-23T10:16:56.920Z,93601.09
2022-12-23T10:19:34.182Z,93602.88
2022-12-23T10:22:10.222Z,93606.31
2022-12-23T10:24:43.438Z,93597.19
2022-12-23T10:27:34.245Z,93609.44
2022-12-23T10:30:26.984Z,93607.88
2022-12-23T10:33:07.057Z,93607.53
2022-12-23T10:35:44.346Z,93616.03
2022-12-23T10:38:46.693Z,93609.00
2022-12-23T10:41:22.467Z,93597.69
2022-12-23T10:44:23.052Z,93593.41
2022-12-23T10:47:17.132Z,93590.66
2022-12-23T10:49:53.628Z,93584.16
2022-12-23T10:52:32.582Z,93583.66
2022-12-23T10:54:59.312Z,93583.88
2022-12-23T10:57:26.089Z,93571.97
2022-12-23T10:59:52.877Z,93566.91
2022-12-23T11:02:49.736Z,93564.44
2022-12-23T11:05:27.093Z,93571.53
2022-12-23T11:07:55.079Z,93569.53
2022-12-23T11:10:28.478Z,93573.00
2022-12-23T11:12:55.443Z,93571.47
2022-12-23T11:15:33.139Z,93565.00
2022-12-23T11:18:02.453Z,93565.72
2022-12-23T11:20:30.112Z,93548.19
2022-12-23T11:23:01.733Z,93547.50
2022-12-23T11:25:31.326Z,93544.25
2022-12-23T11:28:04.777Z,93539.97
2022-12-23T11:30:35.750Z,93544.56
2022-12-23T11:33:03.456Z,93535.59
2022-12-23T11:35:33.409Z,93534.44
2022-12-23T11:38:01.733Z,93524.69
2022-12-23T11:40:33.897Z,93517.00
2022-12-23T11:43:07.459Z,93518.56
2022-12-23T11:45:37.669Z,93517.06
2022-12-23T11:48:05.855Z,93516.75
2022-12-23T11:50:40.362Z,93512.63
2022-12-23T11:53:24.494Z,93525.03
2022-12-23T11:56:09.853Z,93514.16
2022-12-23T11:58:55.305Z,93517.69
2022-12-23T12:01:25.092Z,93505.59
2022-12-23T12:03:59.074Z,93499.75
2022-12-23T12:06:27.232Z,93500.31
2022-12-23T12:08:58.371Z,93496.28
2022-12-23T12:11:33.403Z,93488.09
2022-12-23T12:14:03.781Z,93495.47
2022-12-23T12:16:42.269Z,93497.44
2022-12-23T12:19:38.829Z,93491.66
2022-12-23T12:22:16.483Z,93489.31
2022-12-23T12:24:50.537Z,93483.94
2022-12-23T12:27:18.504Z,93486.56
2022-12-23T12:30:04.432Z,93489.16
2022-12-23T12:33:05.544Z,93490.47
2022-12-23T12:35:44.180Z,93483.47
2022-12-23T12:38:14.720Z,93484.66
2022-12-23T12:40:47.564Z,93482.03
2022-12-23T12:43:27.691Z,93465.47
2022-12-23T12:46:06.329Z,93473.25
2022-12-23T12:48:47.246Z,93474.50
2022-12-23T12:51:43.700Z,93463.09
2022-12-23T12:54:27.499Z,93444.41
2022-12-23T12:56:58.571Z,93443.50
2022-12-23T12:59:28.449Z,93447.72
2022-12-23T13:02:16.657Z,93435.94
2022-12-23T13:05:01.723Z,93440.22
2022-12-23T13:07:53.435Z,93433.97
2022-12-23T13:10:41.729Z,93427.75
2022-12-23T13:13:23.917Z,93424.88
2022-12-23T13:16:02.750Z,93422.47
2022-12-23T13:18:35.775Z,93425.97
2022-12-23T13:21:14.471Z,93428.06
2022-12-23T13:23:46.458Z,93424.06
2022-12-23T13:26:26.951Z,93425.63
2022-12-23T13:29:21.527Z,93424.06
2022-12-23T13:31:54.028Z,93436.28
2022-12-23T13:34:41.990Z,93437.34
2022-12-23T13:37:14.321Z,93440.78
2022-12-23T13:40:05.332Z,93429.59
2022-12-23T13:42:40.216Z,93443.28
2022-12-23T13:45:13.958Z,93430.72
2022-12-23T13:48:05.521Z,93425.97
2022-12-23T13:50:55.365Z,93416.88
2022-12-23T13:53:47.907Z,93423.34
2022-12-23T13:56:35.314Z,93418.25
2022-12-23T13:59:01.893Z,93420.91
2022-12-23T14:01:36.405Z,93427.16
2022-12-23T14:04:35.834Z,93425.59
2022-12-23T14:07:21.927Z,93423.72
2022-12-23T14:09:56.155Z,93422.50
2022-12-23T14:12:28.596Z,93421.44
2022-12-23T14:15:22.720Z,93419.44
2022-12-23T14:18:09.115Z,93416.19
2022-12-23T14:20:51.038Z,93412.75
2022-12-23T14:23:40.590Z,93410.44
2022-12-23T14:26:22.312Z,93411.97
2022-12-23T14:29:15.028Z,93423.06
2022-12-23T14:31:45.314Z,93431.34
2022-12-23T14:34:33.339Z,93443.84
2022-12-23T14:37:15.243Z,93436.88
2022-12-23T14:39:42.424Z,93447.38
2022-12-23T14:42:14.977Z,93443.97
2022-12-23T14:44:46.338Z,93452.16
2022-12-23T14:47:35.184Z,93446.69
2022-12-23T14:50:32.959Z,93450.31
2022-12-23T14:53:01.814Z,93440.84
2022-12-23T14:55:31.208Z,93446.75
2022-12-23T14:58:17.057Z,93445.56
2022-12-23T15:00:55.055Z,93441.75
2022-12-23T15:03:22.517Z,93452.34
2022-12-23T15:05:50.950Z,93461.38
2022-12-23T15:08:37.685Z,93453.22
2022-12-23T15:11:05.734Z,93454.84
2022-12-23T15:13:33.279Z,93460.72
2022-12-23T15:16:01.933Z,93456.81
2022-12-23T15:18:29.097Z,93457.56
2022-12-23T15:21:13.485Z,93464.19
2022-12-23T15:23:48.836Z,93471.25
2022-12-23T15:26:15.483Z,93470.13
2022-12-23T15:28:42.607Z,93478.69
2022-12-23T15:31:38.193Z,93474.03
2022-12-23T15:34:16.800Z,93464.22
2022-12-23T15:36:46.176Z,93491.97
2022-12-23T15:39:40.627Z,93498.31
2022-12-23T15:42:46.200Z,93481.44
2022-12-23T15:45:36.541Z,93494.69
2022-12-23T15:48:05.134Z,93493.50
2022-12-23T15:50:40.437Z,93495.47
2022-12-23T15:53:09.766Z,93504.41
2022-12-23T15:55:40.457Z,93504.41
2022-12-23T15:58:07.236Z,93515.41
2022-12-23T16:00:39.816Z,93520.94
2022-12-23T16:03:21.691Z,93509.94
2022-12-23T16:05:48.590Z,93513.53
2022-12-23T16:08:23.068Z,93511.94
2022-12-23T16:11:15.585Z,93506.41
2022-12-23T16:14:01.658Z,93499.41
2022-12-23T16:16:33.421Z,93512.72
2022-12-23T16:19:00.358Z,93520.56
2022-12-23T16:21:34.975Z,93512.03
2022-12-23T16:24:07.260Z,93513.91
2022-12-23T16:26:41.163Z,93511.59
2022-12-23T16:29:10.899Z,93517.78
2022-12-23T16:31:39.687Z,93510.34
2022-12-23T16:34:08.197Z,93513.44
2022-12-23T16:36:36.554Z,93502.59
2022-12-23T16:39:06.704Z,93510.91
2022-12-23T16:41:34.046Z,93507.00
2022-12-23T16:44:01.109Z,93510.16
2022-12-23T16:46:28.295Z,93495.56
2022-12-23T16:49:04.786Z,93514.66
2022-12-23T16:51:33.890Z,93510.75
2022-12-23T16:54:01.519Z,93510.75
2022-12-23T16:56:35.514Z,93508.44
2022-12-23T16:59:02.794Z,93517.47
2022-12-23T17:01:36.240Z,93508.91
2022-12-23T17:04:04.475Z,93507.31
2022-12-23T17:06:31.085Z,93496.00
2022-12-23T17:08:57.740Z,93501.84
2022-12-23T17:11:35.601Z,93505.84
2022-12-23T17:14:06.714Z,93514.00
2022-12-23T17:16:34.513Z,93504.88
2022-12-23T17:19:01.160Z,93503.78
2022-12-23T17:21:33.855Z,93493.50
2022-12-23T17:24:06.322Z,93496.34
2022-12-23T17:26:33.071Z,93510.09
2022-12-23T17:28:59.611Z,93506.88
2022-12-23T17:31:27.141Z,93513.16
2022-12-23T17:33:54.462Z,93501.56
2022-12-23T17:36:21.165Z,93524.22
2022-12-23T17:38:47.724Z,93517.66
2022-12-23T17:41:26.676Z,93526.66
2022-12-23T17:43:53.250Z,93512.09
2022-12-23T17:46:20.189Z,93506.94
2022-12-23T17:48:47.811Z,93519.59
2022-12-23T17:51:17.538Z,93496.56
2022-12-23T17:53:45.557Z,93496.53
2022-12-23T17:56:18.063Z,93498.41
2022-12-23T17:58:46.076Z,93489.88
2022-12-23T18:01:23.069Z,93503.53
2022-12-23T18:03:49.899Z,93494.81
2022-12-23T18:06:18.538Z,93502.22
2022-12-23T18:08:45.582Z,93499.50
2022-12-23T18:11:33.229Z,93508.53
2022-12-23T18:14:00.708Z,93514.81
2022-12-23T18:16:27.474Z,93513.66
2022-12-23T18:18:54.180Z,93531.19
2022-12-23T18:21:23.964Z,93505.84
2022-12-23T18:23:51.877Z,93512.09
2022-12-23T18:26:18.397Z,93528.16
2022-12-23T18:28:44.962Z,93528.13
2022-12-23T18:31:21.603Z,93518.75
2022-12-23T18:33:48.571Z,93529.75
2022-12-23T18:36:30.509Z,93530.91
2022-12-23T18:38:57.557Z,93553.59
2022-12-23T18:41:25.302Z,93544.91
2022-12-23T18:43:53.291Z,93548.50
2022-12-23T18:46:22.765Z,93551.56
2022-12-23T18:48:49.501Z,93534.72
2022-12-23T18:51:17.828Z,93556.19
2022-12-23T18:53:45.149Z,93559.38
2022-12-23T18:56:16.137Z,93575.81
2022-12-23T18:58:43.075Z,93577.34
2022-12-23T19:01:14.860Z,93565.63
2022-12-23T19:03:41.838Z,93559.03
2022-12-23T19:06:11.700Z,93571.09
2022-12-23T19:08:38.572Z,93570.00
2022-12-23T19:11:18.076Z,93587.09
2022-12-23T19:13:45.244Z,93585.25
2022-12-23T19:16:18.011Z,93571.47
2022-12-23T19:18:45.592Z,93586.75
2022-12-23T19:21:12.496Z,93590.25
2022-12-23T19:23:40.868Z,93590.63
2022-12-23T19:26:10.072Z,93582.00
2022-12-23T19:28:38.120Z,93578.53
2022-12-23T19:31:12.352Z,93581.94
2022-12-23T19:33:40.246Z,93607.78
2022-12-23T19:36:15.687Z,93612.19
2022-12-23T19:38:42.375Z,93605.06
2022-12-23T19:41:09.529Z,93615.66
2022-12-23T19:43:39.709Z,93603.97
2022-12-23T19:46:09.292Z,93635.38
2022-12-23T19:48:37.022Z,93639.75
2022-12-23T19:51:10.016Z,93635.84
2022-12-23T19:53:36.803Z,93640.53
2022-12-23T19:56:21.144Z,93649.84
2022-12-23T19:58:49.135Z,93633.81
2022-12-23T20:01:18.787Z,93649.50
2022-12-23T20:03:47.599Z,93652.34
2022-12-23T20:06:19.742Z,93670.72
2022-12-23T20:08:48.042Z,93669.19
2022-12-23T20:11:20.401Z,93657.44
2022-12-23T20:13:54.056Z,93675.81
2022-12-23T20:16:21.424Z,93678.59
2022-12-23T20:18:48.020Z,93676.19
2022-12-23T20:21:14.890Z,93687.97
2022-12-23T20:23:41.568Z,93707.47
2022-12-23T20:26:12.490Z,93698.94
2022-12-23T20:28:39.007Z,93705.13
2022-12-23T20:31:07.607Z,93691.03
2022-12-23T20:33:36.281Z,93704.41
2022-12-23T20:36:03.494Z,93706.41
2022-12-23T20:38:38.651Z,93707.22
2022-12-23T20:41:10.016Z,93710.03
2022-12-23T20:43:37.022Z,93725.63
2022-12-23T20:46:04.844Z,93726.47
2022-12-23T20:48:34.285Z,93718.59
2022-12-23T20:51:23.765Z,93718.22
2022-12-23T20:53:52.394Z,93721.31
2022-12-23T20:56:21.348Z,93739.63
2022-12-23T20:58:55.128Z,93751.00
2022-12-23T21:01:42.043Z,93745.59
2022-12-23T21:04:15.655Z,93751.09
2022-12-23T21:06:43.301Z,93755.38
2022-12-23T21:09:12.997Z,93752.22
2022-12-23T21:11:43.016Z,93743.22
2022-12-23T21:14:10.770Z,93753.84
2022-12-23T21:16:38.717Z,93767.88
2022-12-23T21:19:13.388Z,93749.53
2022-12-23T21:21:40.032Z,93746.41
2022-12-23T21:24:06.668Z,93764.41
2022-12-23T21:26:34.855Z,93762.47
2022-12-23T21:29:03.987Z,93762.44
2022-12-23T21:31:32.552Z,93767.19
2022-12-23T21:33:59.221Z,93771.91
2022-12-23T21:36:31.352Z,93769.16
2022-12-23T21:38:58.394Z,93774.56
2022-12-23T21:41:28.551Z,93788.25
2022-12-23T21:43:59.727Z,93785.19
2022-12-23T21:46:28.402Z,93791.88
2022-12-23T21:48:56.798Z,93797.38
2022-12-23T21:51:26.523Z,93783.41
2022-12-23T21:53:55.162Z,93795.94
2022-12-23T21:56:24.408Z,93798.25
2022-12-23T21:58:57.861Z,93795.59
2022-12-23T22:01:25.517Z,93803.81
2022-12-23T22:03:53.290Z,93807.72
2022-12-23T22:06:22.631Z,93808.50
2022-12-23T22:08:49.769Z,93824.56
2022-12-23T22:11:24.838Z,93835.53
2022-12-23T22:13:52.482Z,93831.28
2022-12-23T22:16:22.059Z,93838.69
2022-12-23T22:18:49.587Z,93833.28
2022-12-23T22:21:19.065Z,93846.50
2022-12-23T22:23:46.959Z,93839.53
2022-12-23T22:26:23.906Z,93840.72
2022-12-23T22:28:53.533Z,93838.38
2022-12-23T22:31:43.234Z,93849.28
2022-12-23T22:34:13.876Z,93856.72
2022-12-23T22:36:40.415Z,93835.31
2022-12-23T22:39:07.939Z,93837.25
2022-12-23T22:41:35.002Z,93842.31
2022-12-23T22:44:01.587Z,93820.13
2022-12-23T22:46:28.660Z,93813.09
2022-12-23T22:48:56.335Z,93804.13
2022-12-23T22:51:25.343Z,93802.22
2022-12-23T22:53:52.199Z,93801.81
2022-12-23T22:56:20.685Z,93810.38
2022-12-23T22:58:47.907Z,93812.69
2022-12-23T23:01:35.336Z,93820.09
2022-12-23T23:04:03.591Z,93804.53
2022-12-23T23:06:33.118Z,93821.25
2022-12-23T23:09:00.104Z,93827.09
2022-12-23T23:11:27.791Z,93822.78
2022-12-23T23:13:55.256Z,93827.47
2022-12-23T23:16:23.419Z,93826.69
2022-12-23T23:18:50.983Z,93824.75
2022-12-23T23:21:17.737Z,93825.16
2022-12-23T23:23:44.282Z,93834.06
2022-12-23T23:26:11.263Z,93841.44
2022-12-23T23:28:39.407Z,93851.56
2022-12-23T23:31:39.625Z,93842.22
2022-12-23T23:33:53.444Z,93843.38
2022-12-23T23:36:20.061Z,93832.09
2022-12-23T23:38:46.601Z,93821.59
2022-12-23T23:41:16.148Z,93815.78
2022-12-23T23:43:47.062Z,93815.38
2022-12-23T23:46:13.684Z,93820.84
2022-12-23T23:48:40.231Z,93821.59
2022-12-23T23:51:07.172Z,93822.75
2022-12-23T23:53:34.030Z,93828.97
2022-12-23T23:56:05.797Z,93841.81
2022-12-23T23:58:32.319Z,93848.78
